sensor_id;sensor_type;location;lat;lon;timestamp;temperature;humidity
50013;DHT22;35901;48.694;9.476;2024-02-21T00:02:19;2.40;99.90
50013;DHT22;35901;48.694;9.476;2024-02-21T00:04:45;2.30;99.90
50013;DHT22;35901;48.694;9.476;2024-02-21T00:07:11;2.30;99.90
50013;DHT22;35901;48.694;9.476;2024-02-21T00:09:36;2.30;99.90
50013;DHT22;35901;48.694;9.476;2024-02-21T00:12:02;2.20;99.90
50013;DHT22;35901;48.694;9.476;2024-02-21T00:14:28;2.20;99.90
50013;DHT22;35901;48.694;9.476;2024-02-21T00:16:54;2.20;99.90
50013;DHT22;35901;48.694;9.476;2024-02-21T00:19:20;2.20;99.90
50013;DHT22;35901;48.694;9.476;2024-02-21T00:21:46;2.20;99.90
50013;DHT22;35901;48.694;9.476;2024-02-21T00:24:12;2.30;99.90
50013;DHT22;35901;48.694;9.476;2024-02-21T00:26:37;2.30;99.90
50013;DHT22;35901;48.694;9.476;2024-02-21T00:29:03;2.30;99.90
50013;DHT22;35901;48.694;9.476;2024-02-21T00:31:29;2.30;99.90
50013;DHT22;35901;48.694;9.476;2024-02-21T00:33:55;2.30;99.90
50013;DHT22;35901;48.694;9.476;2024-02-21T00:36:20;2.30;99.90
50013;DHT22;35901;48.694;9.476;2024-02-21T00:38:46;2.30;99.90
50013;DHT22;35901;48.694;9.476;2024-02-21T00:41:12;2.30;99.90
50013;DHT22;35901;48.694;9.476;2024-02-21T00:43:38;2.30;99.90
50013;DHT22;35901;48.694;9.476;2024-02-21T00:46:05;2.40;99.90
50013;DHT22;35901;48.694;9.476;2024-02-21T00:48:31;2.40;99.90
50013;DHT22;35901;48.694;9.476;2024-02-21T00:50:57;2.30;99.90
50013;DHT22;35901;48.694;9.476;2024-02-21T00:53:23;2.40;99.90
50013;DHT22;35901;48.694;9.476;2024-02-21T00:55:49;2.40;99.90
50013;DHT22;35901;48.694;9.476;2024-02-21T00:58:15;2.40;99.90
50013;DHT22;35901;48.694;9.476;2024-02-21T01:00:41;2.40;99.90
50013;DHT22;35901;48.694;9.476;2024-02-21T01:03:06;2.40;99.90
50013;DHT22;35901;48.694;9.476;2024-02-21T01:05:32;2.40;99.90
50013;DHT22;35901;48.694;9.476;2024-02-21T01:07:58;2.40;99.90
50013;DHT22;35901;48.694;9.476;2024-02-21T01:10:24;2.40;99.90
50013;DHT22;35901;48.694;9.476;2024-02-21T01:12:49;2.40;99.90
50013;DHT22;35901;48.694;9.476;2024-02-21T01:15:18;2.40;99.90
50013;DHT22;35901;48.694;9.476;2024-02-21T01:17:44;2.40;99.90
50013;DHT22;35901;48.694;9.476;2024-02-21T01:20:10;2.40;99.90
50013;DHT22;35901;48.694;9.476;2024-02-21T01:22:36;2.50;99.90
50013;DHT22;35901;48.694;9.476;2024-02-21T01:25:02;2.50;99.90
50013;DHT22;35901;48.694;9.476;2024-02-21T01:27:28;2.60;99.90
50013;DHT22;35901;48.694;9.476;2024-02-21T01:29:53;2.60;99.90
50013;DHT22;35901;48.694;9.476;2024-02-21T01:32:19;2.60;99.90
50013;DHT22;35901;48.694;9.476;2024-02-21T01:34:45;2.60;99.90
50013;DHT22;35901;48.694;9.476;2024-02-21T01:37:11;2.60;99.90
50013;DHT22;35901;48.694;9.476;2024-02-21T01:39:37;2.50;99.90
50013;DHT22;35901;48.694;9.476;2024-02-21T01:42:03;2.50;99.90
50013;DHT22;35901;48.694;9.476;2024-02-21T01:44:29;2.50;99.90
50013;DHT22;35901;48.694;9.476;2024-02-21T01:46:54;2.50;99.90
50013;DHT22;35901;48.694;9.476;2024-02-21T01:49:21;2.60;99.90
50013;DHT22;35901;48.694;9.476;2024-02-21T01:51:47;2.60;99.90
50013;DHT22;35901;48.694;9.476;2024-02-21T01:54:14;2.60;99.90
50013;DHT22;35901;48.694;9.476;2024-02-21T01:56:42;2.60;99.90
50013;DHT22;35901;48.694;9.476;2024-02-21T01:59:08;2.60;99.90
50013;DHT22;35901;48.694;9.476;2024-02-21T02:01:34;2.60;99.90
50013;DHT22;35901;48.694;9.476;2024-02-21T02:03:59;2.60;99.90
50013;DHT22;35901;48.694;9.476;2024-02-21T02:06:25;2.60;99.90
50013;DHT22;35901;48.694;9.476;2024-02-21T02:08:51;2.60;99.90
50013;DHT22;35901;48.694;9.476;2024-02-21T02:11:17;2.60;99.90
50013;DHT22;35901;48.694;9.476;2024-02-21T02:13:43;2.60;99.90
50013;DHT22;35901;48.694;9.476;2024-02-21T02:16:09;2.60;99.90
50013;DHT22;35901;48.694;9.476;2024-02-21T02:18:34;2.60;99.90
50013;DHT22;35901;48.694;9.476;2024-02-21T02:21:00;2.60;99.90
50013;DHT22;35901;48.694;9.476;2024-02-21T02:25:52;2.60;99.90
50013;DHT22;35901;48.694;9.476;2024-02-21T02:28:18;2.70;99.90
50013;DHT22;35901;48.694;9.476;2024-02-21T02:30:44;2.70;99.90
50013;DHT22;35901;48.694;9.476;2024-02-21T02:33:09;2.70;99.90
50013;DHT22;35901;48.694;9.476;2024-02-21T02:35:35;2.70;99.90
50013;DHT22;35901;48.694;9.476;2024-02-21T02:38:02;2.70;99.90
50013;DHT22;35901;48.694;9.476;2024-02-21T02:40:28;2.60;99.90
50013;DHT22;35901;48.694;9.476;2024-02-21T02:42:54;2.60;99.90
50013;DHT22;35901;48.694;9.476;2024-02-21T02:45:23;2.60;99.90
50013;DHT22;35901;48.694;9.476;2024-02-21T02:47:55;2.60;99.90
50013;DHT22;35901;48.694;9.476;2024-02-21T02:50:26;2.60;99.90
50013;DHT22;35901;48.694;9.476;2024-02-21T02:52:53;2.70;99.90
50013;DHT22;35901;48.694;9.476;2024-02-21T02:55:19;2.70;99.90
50013;DHT22;35901;48.694;9.476;2024-02-21T02:57:45;2.80;99.90
50013;DHT22;35901;48.694;9.476;2024-02-21T03:00:11;2.80;99.90
50013;DHT22;35901;48.694;9.476;2024-02-21T03:02:38;2.70;99.90
50013;DHT22;35901;48.694;9.476;2024-02-21T03:05:16;2.80;99.90
50013;DHT22;35901;48.694;9.476;2024-02-21T03:07:42;2.80;99.90
50013;DHT22;35901;48.694;9.476;2024-02-21T03:10:08;2.80;99.90
50013;DHT22;35901;48.694;9.476;2024-02-21T03:12:34;2.90;99.90
50013;DHT22;35901;48.694;9.476;2024-02-21T03:15:00;2.90;99.90
50013;DHT22;35901;48.694;9.476;2024-02-21T03:17:25;2.90;99.90
50013;DHT22;35901;48.694;9.476;2024-02-21T03:19:54;2.90;99.90
50013;DHT22;35901;48.694;9.476;2024-02-21T03:22:21;2.90;99.90
50013;DHT22;35901;48.694;9.476;2024-02-21T03:24:47;2.90;99.90
50013;DHT22;35901;48.694;9.476;2024-02-21T03:27:12;3.00;99.90
50013;DHT22;35901;48.694;9.476;2024-02-21T03:29:38;3.00;99.90
50013;DHT22;35901;48.694;9.476;2024-02-21T03:32:04;3.10;99.90
50013;DHT22;35901;48.694;9.476;2024-02-21T03:34:31;3.10;99.90
50013;DHT22;35901;48.694;9.476;2024-02-21T03:36:57;3.20;99.90
50013;DHT22;35901;48.694;9.476;2024-02-21T03:39:22;3.10;99.90
50013;DHT22;35901;48.694;9.476;2024-02-21T03:41:48;3.10;99.90
50013;DHT22;35901;48.694;9.476;2024-02-21T03:44:14;3.10;99.90
50013;DHT22;35901;48.694;9.476;2024-02-21T03:46:40;3.10;99.90
50013;DHT22;35901;48.694;9.476;2024-02-21T03:49:06;3.10;99.90
50013;DHT22;35901;48.694;9.476;2024-02-21T03:51:32;3.10;99.90
50013;DHT22;35901;48.694;9.476;2024-02-21T03:53:58;3.10;99.90
50013;DHT22;35901;48.694;9.476;2024-02-21T03:56:23;3.00;99.90
50013;DHT22;35901;48.694;9.476;2024-02-21T03:58:50;3.00;99.90
50013;DHT22;35901;48.694;9.476;2024-02-21T04:01:15;2.90;99.90
50013;DHT22;35901;48.694;9.476;2024-02-21T04:03:43;2.90;99.90
50013;DHT22;35901;48.694;9.476;2024-02-21T04:06:09;2.80;99.90
50013;DHT22;35901;48.694;9.476;2024-02-21T04:08:35;2.80;99.90
50013;DHT22;35901;48.694;9.476;2024-02-21T04:11:00;2.70;99.90
50013;DHT22;35901;48.694;9.476;2024-02-21T04:13:26;2.70;99.90
50013;DHT22;35901;48.694;9.476;2024-02-21T04:15:52;2.70;99.90
50013;DHT22;35901;48.694;9.476;2024-02-21T04:18:17;2.70;99.90
50013;DHT22;35901;48.694;9.476;2024-02-21T04:20:43;2.70;99.90
50013;DHT22;35901;48.694;9.476;2024-02-21T04:23:09;2.70;99.90
50013;DHT22;35901;48.694;9.476;2024-02-21T04:25:34;2.70;99.90
50013;DHT22;35901;48.694;9.476;2024-02-21T04:28:00;2.60;99.90
50013;DHT22;35901;48.694;9.476;2024-02-21T04:30:26;2.60;99.90
50013;DHT22;35901;48.694;9.476;2024-02-21T04:32:51;2.50;99.90
50013;DHT22;35901;48.694;9.476;2024-02-21T04:35:17;2.40;99.90
50013;DHT22;35901;48.694;9.476;2024-02-21T04:37:42;2.30;99.90
50013;DHT22;35901;48.694;9.476;2024-02-21T04:40:08;2.20;99.90
50013;DHT22;35901;48.694;9.476;2024-02-21T04:42:34;2.30;99.90
50013;DHT22;35901;48.694;9.476;2024-02-21T04:45:00;2.30;99.90
50013;DHT22;35901;48.694;9.476;2024-02-21T04:47:26;2.40;99.90
50013;DHT22;35901;48.694;9.476;2024-02-21T04:49:52;2.40;99.90
50013;DHT22;35901;48.694;9.476;2024-02-21T04:52:18;2.40;99.90
50013;DHT22;35901;48.694;9.476;2024-02-21T04:54:44;2.40;99.90
50013;DHT22;35901;48.694;9.476;2024-02-21T04:57:09;2.40;99.90
50013;DHT22;35901;48.694;9.476;2024-02-21T04:59:36;2.30;99.90
50013;DHT22;35901;48.694;9.476;2024-02-21T05:02:02;2.30;99.90
50013;DHT22;35901;48.694;9.476;2024-02-21T05:04:28;2.20;99.90
50013;DHT22;35901;48.694;9.476;2024-02-21T05:06:54;2.10;99.90
50013;DHT22;35901;48.694;9.476;2024-02-21T05:09:20;2.00;99.90
50013;DHT22;35901;48.694;9.476;2024-02-21T05:11:46;1.90;99.90
50013;DHT22;35901;48.694;9.476;2024-02-21T05:14:11;1.80;99.90
50013;DHT22;35901;48.694;9.476;2024-02-21T05:16:38;1.60;99.90
50013;DHT22;35901;48.694;9.476;2024-02-21T05:19:04;1.60;99.90
50013;DHT22;35901;48.694;9.476;2024-02-21T05:21:30;1.60;99.90
50013;DHT22;35901;48.694;9.476;2024-02-21T05:23:55;1.50;99.90
50013;DHT22;35901;48.694;9.476;2024-02-21T05:26:25;1.50;99.90
50013;DHT22;35901;48.694;9.476;2024-02-21T05:28:51;1.50;99.90
50013;DHT22;35901;48.694;9.476;2024-02-21T05:31:20;1.40;99.90
50013;DHT22;35901;48.694;9.476;2024-02-21T05:33:47;1.30;99.90
50013;DHT22;35901;48.694;9.476;2024-02-21T05:36:13;1.10;99.90
50013;DHT22;35901;48.694;9.476;2024-02-21T05:38:39;1.00;99.90
50013;DHT22;35901;48.694;9.476;2024-02-21T05:41:05;0.90;99.90
50013;DHT22;35901;48.694;9.476;2024-02-21T05:43:31;0.90;99.90
50013;DHT22;35901;48.694;9.476;2024-02-21T05:45:57;0.80;99.90
50013;DHT22;35901;48.694;9.476;2024-02-21T05:48:23;0.80;99.90
50013;DHT22;35901;48.694;9.476;2024-02-21T05:50:49;0.80;99.90
50013;DHT22;35901;48.694;9.476;2024-02-21T05:53:15;0.90;99.90
50013;DHT22;35901;48.694;9.476;2024-02-21T05:55:41;1.00;99.90
50013;DHT22;35901;48.694;9.476;2024-02-21T05:58:07;1.10;99.90
50013;DHT22;35901;48.694;9.476;2024-02-21T06:00:33;1.20;99.90
50013;DHT22;35901;48.694;9.476;2024-02-21T06:02:59;1.30;99.90
50013;DHT22;35901;48.694;9.476;2024-02-21T06:05:24;1.40;99.90
50013;DHT22;35901;48.694;9.476;2024-02-21T06:07:50;1.50;99.90
50013;DHT22;35901;48.694;9.476;2024-02-21T06:10:16;1.50;99.90
50013;DHT22;35901;48.694;9.476;2024-02-21T06:12:41;1.50;99.90
50013;DHT22;35901;48.694;9.476;2024-02-21T06:15:08;1.30;99.90
50013;DHT22;35901;48.694;9.476;2024-02-21T06:17:33;1.00;99.90
50013;DHT22;35901;48.694;9.476;2024-02-21T06:19:59;0.70;99.90
50013;DHT22;35901;48.694;9.476;2024-02-21T06:22:25;0.50;99.90
50013;DHT22;35901;48.694;9.476;2024-02-21T06:24:50;0.50;99.90
50013;DHT22;35901;48.694;9.476;2024-02-21T06:27:16;0.50;99.90
50013;DHT22;35901;48.694;9.476;2024-02-21T06:29:42;0.50;99.90
50013;DHT22;35901;48.694;9.476;2024-02-21T06:32:08;0.50;99.90
50013;DHT22;35901;48.694;9.476;2024-02-21T06:34:34;0.50;99.90
50013;DHT22;35901;48.694;9.476;2024-02-21T06:36:59;0.60;99.90
50013;DHT22;35901;48.694;9.476;2024-02-21T06:39:25;0.70;99.90
50013;DHT22;35901;48.694;9.476;2024-02-21T06:41:51;0.80;99.90
50013;DHT22;35901;48.694;9.476;2024-02-21T06:44:18;1.10;99.90
50013;DHT22;35901;48.694;9.476;2024-02-21T06:46:43;1.60;99.90
50013;DHT22;35901;48.694;9.476;2024-02-21T06:49:09;2.00;99.90
50013;DHT22;35901;48.694;9.476;2024-02-21T06:51:44;2.30;99.90
50013;DHT22;35901;48.694;9.476;2024-02-21T06:54:09;2.60;99.90
50013;DHT22;35901;48.694;9.476;2024-02-21T06:56:36;2.70;99.90
50013;DHT22;35901;48.694;9.476;2024-02-21T06:59:02;2.60;99.90
50013;DHT22;35901;48.694;9.476;2024-02-21T07:01:29;2.20;99.90
50013;DHT22;35901;48.694;9.476;2024-02-21T07:03:55;2.00;99.90
50013;DHT22;35901;48.694;9.476;2024-02-21T07:06:20;2.50;99.90
50013;DHT22;35901;48.694;9.476;2024-02-21T07:08:46;3.10;99.90
50013;DHT22;35901;48.694;9.476;2024-02-21T07:11:11;3.40;99.90
50013;DHT22;35901;48.694;9.476;2024-02-21T07:13:37;3.60;99.90
50013;DHT22;35901;48.694;9.476;2024-02-21T07:16:03;3.60;99.90
50013;DHT22;35901;48.694;9.476;2024-02-21T07:18:29;3.50;99.90
50013;DHT22;35901;48.694;9.476;2024-02-21T07:20:54;3.50;99.90
50013;DHT22;35901;48.694;9.476;2024-02-21T07:23:21;3.60;99.90
50013;DHT22;35901;48.694;9.476;2024-02-21T07:25:46;3.60;99.90
50013;DHT22;35901;48.694;9.476;2024-02-21T07:28:12;3.80;99.90
50013;DHT22;35901;48.694;9.476;2024-02-21T07:30:39;4.00;99.90
50013;DHT22;35901;48.694;9.476;2024-02-21T07:33:04;4.20;99.90
50013;DHT22;35901;48.694;9.476;2024-02-21T07:35:30;4.10;99.90
50013;DHT22;35901;48.694;9.476;2024-02-21T07:37:56;4.30;99.90
50013;DHT22;35901;48.694;9.476;2024-02-21T07:40:21;4.60;99.90
50013;DHT22;35901;48.694;9.476;2024-02-21T07:42:47;4.90;99.90
50013;DHT22;35901;48.694;9.476;2024-02-21T07:45:12;5.50;99.90
50013;DHT22;35901;48.694;9.476;2024-02-21T07:47:38;6.00;99.90
50013;DHT22;35901;48.694;9.476;2024-02-21T07:50:04;6.20;99.90
50013;DHT22;35901;48.694;9.476;2024-02-21T07:52:30;6.20;99.90
50013;DHT22;35901;48.694;9.476;2024-02-21T07:54:55;6.30;99.90
50013;DHT22;35901;48.694;9.476;2024-02-21T07:57:22;6.50;99.90
50013;DHT22;35901;48.694;9.476;2024-02-21T07:59:50;6.90;99.90
50013;DHT22;35901;48.694;9.476;2024-02-21T08:02:16;6.90;99.90
50013;DHT22;35901;48.694;9.476;2024-02-21T08:04:42;7.00;99.90
50013;DHT22;35901;48.694;9.476;2024-02-21T08:07:09;7.10;99.90
50013;DHT22;35901;48.694;9.476;2024-02-21T08:09:35;7.30;99.90
50013;DHT22;35901;48.694;9.476;2024-02-21T08:12:02;7.50;99.90
50013;DHT22;35901;48.694;9.476;2024-02-21T08:14:27;7.30;99.90
50013;DHT22;35901;48.694;9.476;2024-02-21T08:16:53;7.10;99.90
50013;DHT22;35901;48.694;9.476;2024-02-21T08:19:20;6.90;99.90
50013;DHT22;35901;48.694;9.476;2024-02-21T08:21:46;6.80;99.90
50013;DHT22;35901;48.694;9.476;2024-02-21T08:24:13;6.80;99.90
50013;DHT22;35901;48.694;9.476;2024-02-21T08:26:41;7.00;99.90
50013;DHT22;35901;48.694;9.476;2024-02-21T08:29:07;7.30;99.90
50013;DHT22;35901;48.694;9.476;2024-02-21T08:31:32;7.40;99.90
50013;DHT22;35901;48.694;9.476;2024-02-21T08:34:00;7.70;99.90
50013;DHT22;35901;48.694;9.476;2024-02-21T08:36:35;8.10;99.90
50013;DHT22;35901;48.694;9.476;2024-02-21T08:39:03;8.50;99.90
50013;DHT22;35901;48.694;9.476;2024-02-21T08:41:32;8.70;99.90
50013;DHT22;35901;48.694;9.476;2024-02-21T08:43:58;8.70;99.90
50013;DHT22;35901;48.694;9.476;2024-02-21T08:46:24;8.70;99.90
50013;DHT22;35901;48.694;9.476;2024-02-21T08:48:51;8.80;99.90
50013;DHT22;35901;48.694;9.476;2024-02-21T08:51:17;8.90;99.90
50013;DHT22;35901;48.694;9.476;2024-02-21T08:53:47;8.80;99.90
50013;DHT22;35901;48.694;9.476;2024-02-21T08:56:13;8.70;99.90
50013;DHT22;35901;48.694;9.476;2024-02-21T08:58:39;8.50;99.90
50013;DHT22;35901;48.694;9.476;2024-02-21T09:01:06;8.40;99.90
50013;DHT22;35901;48.694;9.476;2024-02-21T09:03:36;8.10;99.90
50013;DHT22;35901;48.694;9.476;2024-02-21T09:06:03;8.00;99.90
50013;DHT22;35901;48.694;9.476;2024-02-21T09:08:29;7.90;99.90
50013;DHT22;35901;48.694;9.476;2024-02-21T09:10:55;7.80;99.90
50013;DHT22;35901;48.694;9.476;2024-02-21T09:13:21;7.70;99.90
50013;DHT22;35901;48.694;9.476;2024-02-21T09:15:48;7.80;99.90
50013;DHT22;35901;48.694;9.476;2024-02-21T09:18:16;7.80;99.90
50013;DHT22;35901;48.694;9.476;2024-02-21T09:20:47;7.70;99.90
50013;DHT22;35901;48.694;9.476;2024-02-21T09:23:13;7.80;99.90
50013;DHT22;35901;48.694;9.476;2024-02-21T09:25:39;7.80;99.90
50013;DHT22;35901;48.694;9.476;2024-02-21T09:28:05;7.90;99.90
50013;DHT22;35901;48.694;9.476;2024-02-21T09:30:33;7.90;99.90
50013;DHT22;35901;48.694;9.476;2024-02-21T09:32:59;8.00;99.90
50013;DHT22;35901;48.694;9.476;2024-02-21T09:35:26;8.00;99.90
50013;DHT22;35901;48.694;9.476;2024-02-21T09:37:53;8.00;99.90
50013;DHT22;35901;48.694;9.476;2024-02-21T09:40:19;8.00;99.90
50013;DHT22;35901;48.694;9.476;2024-02-21T09:42:47;8.10;99.90
50013;DHT22;35901;48.694;9.476;2024-02-21T09:45:21;8.10;99.90
50013;DHT22;35901;48.694;9.476;2024-02-21T09:50:46;8.30;99.90
50013;DHT22;35901;48.694;9.476;2024-02-21T09:53:12;8.40;99.90
50013;DHT22;35901;48.694;9.476;2024-02-21T09:55:39;8.60;99.90
50013;DHT22;35901;48.694;9.476;2024-02-21T09:58:07;8.70;99.90
50013;DHT22;35901;48.694;9.476;2024-02-21T10:00:35;8.80;99.90
50013;DHT22;35901;48.694;9.476;2024-02-21T10:03:01;8.90;99.90
50013;DHT22;35901;48.694;9.476;2024-02-21T10:05:27;9.00;99.90
50013;DHT22;35901;48.694;9.476;2024-02-21T10:07:53;9.20;99.90
50013;DHT22;35901;48.694;9.476;2024-02-21T10:10:19;9.40;99.90
50013;DHT22;35901;48.694;9.476;2024-02-21T10:12:53;9.60;99.90
50013;DHT22;35901;48.694;9.476;2024-02-21T10:15:26;9.80;99.90
50013;DHT22;35901;48.694;9.476;2024-02-21T10:17:59;10.10;99.90
50013;DHT22;35901;48.694;9.476;2024-02-21T10:20:25;10.30;99.90
50013;DHT22;35901;48.694;9.476;2024-02-21T10:23:03;10.50;99.90
50013;DHT22;35901;48.694;9.476;2024-02-21T10:25:36;11.00;99.90
50013;DHT22;35901;48.694;9.476;2024-02-21T10:28:08;11.10;99.90
50013;DHT22;35901;48.694;9.476;2024-02-21T10:30:37;11.10;99.90
50013;DHT22;35901;48.694;9.476;2024-02-21T10:33:03;11.20;99.90
50013;DHT22;35901;48.694;9.476;2024-02-21T10:35:32;11.30;99.90
50013;DHT22;35901;48.694;9.476;2024-02-21T10:37:59;11.30;99.90
50013;DHT22;35901;48.694;9.476;2024-02-21T10:40:27;11.30;99.90
50013;DHT22;35901;48.694;9.476;2024-02-21T10:43:01;11.30;99.90
50013;DHT22;35901;48.694;9.476;2024-02-21T10:45:38;11.30;99.90
50013;DHT22;35901;48.694;9.476;2024-02-21T10:48:14;11.50;99.90
50013;DHT22;35901;48.694;9.476;2024-02-21T10:51:15;11.50;99.90
50013;DHT22;35901;48.694;9.476;2024-02-21T10:56:32;11.50;99.90
50013;DHT22;35901;48.694;9.476;2024-02-21T10:59:02;11.50;99.90
50013;DHT22;35901;48.694;9.476;2024-02-21T11:01:28;11.50;99.90
50013;DHT22;35901;48.694;9.476;2024-02-21T11:03:59;11.50;99.90
50013;DHT22;35901;48.694;9.476;2024-02-21T11:06:27;11.60;99.90
50013;DHT22;35901;48.694;9.476;2024-02-21T11:09:07;11.40;99.90
50013;DHT22;35901;48.694;9.476;2024-02-21T11:14:07;11.50;99.90
50013;DHT22;35901;48.694;9.476;2024-02-21T11:16:41;11.70;99.90
50013;DHT22;35901;48.694;9.476;2024-02-21T11:19:09;11.70;99.90
50013;DHT22;35901;48.694;9.476;2024-02-21T11:21:38;11.70;99.90
50013;DHT22;35901;48.694;9.476;2024-02-21T11:24:04;11.80;99.90
50013;DHT22;35901;48.694;9.476;2024-02-21T11:26:30;11.80;99.90
50013;DHT22;35901;48.694;9.476;2024-02-21T11:29:03;11.80;99.90
50013;DHT22;35901;48.694;9.476;2024-02-21T11:31:44;12.00;99.90
50013;DHT22;35901;48.694;9.476;2024-02-21T11:34:16;12.10;99.90
50013;DHT22;35901;48.694;9.476;2024-02-21T11:36:50;12.20;99.90
50013;DHT22;35901;48.694;9.476;2024-02-21T11:39:20;12.30;99.90
50013;DHT22;35901;48.694;9.476;2024-02-21T11:41:58;12.50;99.90
50013;DHT22;35901;48.694;9.476;2024-02-21T11:44:26;12.50;99.90
50013;DHT22;35901;48.694;9.476;2024-02-21T11:46:51;12.50;99.90
50013;DHT22;35901;48.694;9.476;2024-02-21T11:49:17;12.60;99.90
50013;DHT22;35901;48.694;9.476;2024-02-21T11:51:43;12.70;99.90
50013;DHT22;35901;48.694;9.476;2024-02-21T11:54:08;12.70;99.90
50013;DHT22;35901;48.694;9.476;2024-02-21T11:56:36;12.70;99.90
50013;DHT22;35901;48.694;9.476;2024-02-21T11:59:02;12.80;99.90
50013;DHT22;35901;48.694;9.476;2024-02-21T12:01:28;12.90;99.90
50013;DHT22;35901;48.694;9.476;2024-02-21T12:03:53;12.80;99.90
50013;DHT22;35901;48.694;9.476;2024-02-21T12:06:19;12.80;99.90
50013;DHT22;35901;48.694;9.476;2024-02-21T12:08:47;12.80;99.90
50013;DHT22;35901;48.694;9.476;2024-02-21T12:11:23;12.70;99.90
50013;DHT22;35901;48.694;9.476;2024-02-21T12:14:02;12.70;99.90
50013;DHT22;35901;48.694;9.476;2024-02-21T12:16:35;12.80;99.90
50013;DHT22;35901;48.694;9.476;2024-02-21T12:19:03;12.80;99.90
50013;DHT22;35901;48.694;9.476;2024-02-21T12:21:33;12.80;99.90
50013;DHT22;35901;48.694;9.476;2024-02-21T12:26:41;12.70;99.90
50013;DHT22;35901;48.694;9.476;2024-02-21T12:29:07;12.70;99.90
50013;DHT22;35901;48.694;9.476;2024-02-21T12:31:37;12.70;99.90
50013;DHT22;35901;48.694;9.476;2024-02-21T12:34:04;12.60;99.90
50013;DHT22;35901;48.694;9.476;2024-02-21T12:36:31;12.60;99.90
50013;DHT22;35901;48.694;9.476;2024-02-21T12:38:56;12.60;99.90
50013;DHT22;35901;48.694;9.476;2024-02-21T12:41:22;12.60;99.90
50013;DHT22;35901;48.694;9.476;2024-02-21T12:43:47;12.60;99.90
50013;DHT22;35901;48.694;9.476;2024-02-21T12:46:13;12.60;99.90
50013;DHT22;35901;48.694;9.476;2024-02-21T12:48:39;12.60;99.90
50013;DHT22;35901;48.694;9.476;2024-02-21T12:51:05;12.50;99.90
50013;DHT22;35901;48.694;9.476;2024-02-21T12:53:31;12.50;99.90
50013;DHT22;35901;48.694;9.476;2024-02-21T12:55:57;12.60;99.90
50013;DHT22;35901;48.694;9.476;2024-02-21T12:58:22;12.60;99.90
50013;DHT22;35901;48.694;9.476;2024-02-21T13:00:48;12.60;99.90
50013;DHT22;35901;48.694;9.476;2024-02-21T13:03:14;12.70;99.90
50013;DHT22;35901;48.694;9.476;2024-02-21T13:05:40;12.70;99.90
50013;DHT22;35901;48.694;9.476;2024-02-21T13:08:09;12.70;99.90
50013;DHT22;35901;48.694;9.476;2024-02-21T13:10:35;12.60;99.90
50013;DHT22;35901;48.694;9.476;2024-02-21T13:13:01;12.60;99.90
50013;DHT22;35901;48.694;9.476;2024-02-21T13:15:27;12.60;99.90
50013;DHT22;35901;48.694;9.476;2024-02-21T13:17:55;12.60;99.90
50013;DHT22;35901;48.694;9.476;2024-02-21T13:20:20;12.60;99.90
50013;DHT22;35901;48.694;9.476;2024-02-21T13:22:46;12.60;99.90
50013;DHT22;35901;48.694;9.476;2024-02-21T13:25:12;12.50;99.90
50013;DHT22;35901;48.694;9.476;2024-02-21T13:27:41;12.40;99.90
50013;DHT22;35901;48.694;9.476;2024-02-21T13:30:07;12.40;99.90
50013;DHT22;35901;48.694;9.476;2024-02-21T13:32:35;12.30;99.90
50013;DHT22;35901;48.694;9.476;2024-02-21T13:35:01;12.40;99.90
50013;DHT22;35901;48.694;9.476;2024-02-21T13:37:27;12.40;99.90
50013;DHT22;35901;48.694;9.476;2024-02-21T13:39:54;12.40;99.90
50013;DHT22;35901;48.694;9.476;2024-02-21T13:42:20;12.40;99.90
50013;DHT22;35901;48.694;9.476;2024-02-21T13:44:46;12.50;99.90
50013;DHT22;35901;48.694;9.476;2024-02-21T13:47:14;12.40;99.90
50013;DHT22;35901;48.694;9.476;2024-02-21T13:49:40;12.40;99.90
50013;DHT22;35901;48.694;9.476;2024-02-21T13:52:05;12.40;99.90
50013;DHT22;35901;48.694;9.476;2024-02-21T13:54:31;12.40;99.90
50013;DHT22;35901;48.694;9.476;2024-02-21T13:56:57;12.40;99.90
50013;DHT22;35901;48.694;9.476;2024-02-21T13:59:22;12.30;99.90
50013;DHT22;35901;48.694;9.476;2024-02-21T14:01:48;12.30;99.90
50013;DHT22;35901;48.694;9.476;2024-02-21T14:04:13;12.30;99.90
50013;DHT22;35901;48.694;9.476;2024-02-21T14:06:39;12.30;99.90
50013;DHT22;35901;48.694;9.476;2024-02-21T14:09:14;12.30;99.90
50013;DHT22;35901;48.694;9.476;2024-02-21T14:11:40;12.20;99.90
50013;DHT22;35901;48.694;9.476;2024-02-21T14:14:07;12.20;99.90
50013;DHT22;35901;48.694;9.476;2024-02-21T14:16:33;12.20;99.90
50013;DHT22;35901;48.694;9.476;2024-02-21T14:18:59;12.20;99.90
50013;DHT22;35901;48.694;9.476;2024-02-21T14:21:25;12.20;99.90
50013;DHT22;35901;48.694;9.476;2024-02-21T14:23:51;12.20;99.90
50013;DHT22;35901;48.694;9.476;2024-02-21T14:26:18;12.20;99.90
50013;DHT22;35901;48.694;9.476;2024-02-21T14:28:44;12.20;99.90
50013;DHT22;35901;48.694;9.476;2024-02-21T14:31:11;12.10;99.90
50013;DHT22;35901;48.694;9.476;2024-02-21T14:33:37;12.00;99.90
50013;DHT22;35901;48.694;9.476;2024-02-21T14:36:03;11.90;99.90
50013;DHT22;35901;48.694;9.476;2024-02-21T14:38:29;11.90;99.90
50013;DHT22;35901;48.694;9.476;2024-02-21T14:40:55;11.80;99.90
50013;DHT22;35901;48.694;9.476;2024-02-21T14:43:21;11.80;99.90
50013;DHT22;35901;48.694;9.476;2024-02-21T14:45:47;11.80;99.90
50013;DHT22;35901;48.694;9.476;2024-02-21T14:48:13;11.80;99.90
50013;DHT22;35901;48.694;9.476;2024-02-21T14:50:39;11.80;99.90
50013;DHT22;35901;48.694;9.476;2024-02-21T14:53:04;12.00;99.90
50013;DHT22;35901;48.694;9.476;2024-02-21T14:55:30;12.00;99.90
50013;DHT22;35901;48.694;9.476;2024-02-21T14:57:56;11.90;99.90
50013;DHT22;35901;48.694;9.476;2024-02-21T15:00:21;11.90;99.90
50013;DHT22;35901;48.694;9.476;2024-02-21T15:02:55;11.90;99.90
50013;DHT22;35901;48.694;9.476;2024-02-21T15:05:21;11.90;99.90
50013;DHT22;35901;48.694;9.476;2024-02-21T15:07:46;11.90;99.90
50013;DHT22;35901;48.694;9.476;2024-02-21T15:10:12;11.90;99.90
50013;DHT22;35901;48.694;9.476;2024-02-21T15:12:37;11.90;99.90
50013;DHT22;35901;48.694;9.476;2024-02-21T15:15:03;11.90;99.90
50013;DHT22;35901;48.694;9.476;2024-02-21T15:17:29;11.90;99.90
50013;DHT22;35901;48.694;9.476;2024-02-21T15:19:55;11.90;99.90
50013;DHT22;35901;48.694;9.476;2024-02-21T15:22:21;11.80;99.90
50013;DHT22;35901;48.694;9.476;2024-02-21T15:24:48;11.70;99.90
50013;DHT22;35901;48.694;9.476;2024-02-21T15:27:15;11.60;99.90
50013;DHT22;35901;48.694;9.476;2024-02-21T15:29:40;11.40;99.90
50013;DHT22;35901;48.694;9.476;2024-02-21T15:32:06;11.30;99.90
50013;DHT22;35901;48.694;9.476;2024-02-21T15:34:32;11.20;99.90
50013;DHT22;35901;48.694;9.476;2024-02-21T15:36:58;11.10;99.90
50013;DHT22;35901;48.694;9.476;2024-02-21T15:39:23;11.00;99.90
50013;DHT22;35901;48.694;9.476;2024-02-21T15:41:53;11.00;99.90
50013;DHT22;35901;48.694;9.476;2024-02-21T15:44:19;11.00;99.90
50013;DHT22;35901;48.694;9.476;2024-02-21T15:46:47;10.90;99.90
50013;DHT22;35901;48.694;9.476;2024-02-21T15:49:12;10.90;99.90
50013;DHT22;35901;48.694;9.476;2024-02-21T15:51:38;10.80;99.90